Terminal Aerodrome Forecast
Issued by NWS

Home | Current Version | Previous Version | Text Only | Print | Product List | Glossary On
Versions: 1 2 3 4 5 6 7 8 9 10 11 12 13 14 15 16 17 18 19 20 21 22 23 24 25 26 27 28 29 30 31 32 33 34 35 36 37 38 39 40 41 42 43 44 45 46 47 48 49 50
000
FTUS45 KBOU 241130
TAFAPA
TAF
KAPA 241130Z 2412/2512 17005KT P6SM FEW110
     FM241500 VRB05KT P6SM SCT110 SCT200
     FM241700 08007KT P6SM SCT060 SCT110
     FM242000 14010KT P6SM SCT050 BKN080
      TEMPO 2420/2424 4SM -TSRA BKN035CB OVC050
     FM250000 11010KT P6SM SCT045 BKN080
      TEMPO 2500/2502 3SM -TSRA BKN030CB
     FM250200 16007KT P6SM SCT040 BKN090
     FM250500 20008KT P6SM FEW050 SCT090=

USA.gov is the U.S. government's official web portal to all federal, state and local government web resources and services.